createdAt,value
2023-09-08T00:00:28.425Z,7.47
2023-09-08T00:02:55.558Z,6.27
2023-09-08T00:05:22.680Z,7.33
2023-09-08T00:07:50.577Z,7.40
2023-09-08T00:10:17.836Z,7.93
2023-09-08T00:12:44.969Z,8.17
2023-09-08T00:15:12.742Z,6.80
2023-09-08T00:17:41.249Z,12.73
2023-09-08T00:20:09.190Z,6.27
2023-09-08T00:22:36.315Z,7.83
2023-09-08T00:25:03.507Z,6.17
2023-09-08T00:27:30.764Z,6.93
2023-09-08T00:29:57.858Z,5.33
2023-09-08T00:32:25.024Z,7.73
2023-09-08T00:34:53.552Z,7.53
2023-09-08T00:37:20.651Z,9.03
2023-09-08T00:39:48.224Z,6.83
2023-09-08T00:42:15.337Z,8.87
2023-09-08T00:44:42.400Z,8.00
2023-09-08T00:47:09.539Z,7.47
2023-09-08T00:49:36.774Z,6.33
2023-09-08T00:52:06.366Z,6.27
2023-09-08T00:54:33.458Z,6.20
2023-09-08T00:57:03.147Z,7.00
2023-09-08T00:59:32.300Z,7.67
2023-09-08T01:01:59.791Z,8.13
2023-09-08T01:04:27.023Z,6.73
2023-09-08T01:06:55.383Z,7.07
2023-09-08T01:09:25.373Z,8.40
2023-09-08T01:11:52.995Z,6.80
2023-09-08T01:14:20.289Z,6.60
2023-09-08T01:16:47.540Z,6.43
2023-09-08T01:19:17.140Z,5.77
2023-09-08T01:22:16.670Z,7.20
2023-09-08T01:27:38.306Z,6.30
2023-09-08T01:30:07.613Z,7.23
2023-09-08T01:32:36.118Z,6.63
2023-09-08T01:35:04.213Z,8.70
2023-09-08T01:37:31.304Z,7.93
2023-09-08T01:39:58.408Z,8.97
2023-09-08T01:42:25.890Z,7.03
2023-09-08T01:44:54.456Z,8.43
2023-09-08T01:47:21.499Z,5.90
2023-09-08T01:49:48.621Z,6.13
2023-09-08T01:52:15.717Z,11.27
2023-09-08T01:54:43.047Z,6.77
2023-09-08T01:57:10.332Z,6.70
2023-09-08T01:59:37.404Z,8.27
2023-09-08T02:02:06.000Z,6.90
2023-09-08T02:04:33.268Z,7.60
2023-09-08T02:07:00.398Z,8.53
2023-09-08T02:09:32.566Z,7.60
2023-09-08T02:11:59.922Z,6.67
2023-09-08T02:14:27.137Z,6.40
2023-09-08T02:16:54.356Z,9.00
2023-09-08T02:19:23.305Z,6.17
2023-09-08T02:21:50.541Z,6.17
2023-09-08T02:24:17.687Z,9.97
2023-09-08T02:26:44.783Z,7.80
2023-09-08T02:29:11.894Z,10.70
2023-09-08T02:31:38.971Z,7.90
2023-09-08T02:34:06.032Z,10.07
2023-09-08T02:36:34.550Z,6.63
2023-09-08T02:39:01.687Z,7.87
2023-09-08T02:41:28.782Z,7.57
2023-09-08T02:43:56.788Z,6.70
2023-09-08T02:46:23.956Z,6.23
2023-09-08T02:48:51.962Z,6.20
2023-09-08T02:51:22.704Z,6.17
2023-09-08T02:53:51.178Z,7.17
2023-09-08T02:56:19.464Z,6.57
2023-09-08T02:58:46.650Z,6.00
2023-09-08T03:01:15.328Z,5.83
2023-09-08T03:03:43.209Z,6.63
2023-09-08T03:06:10.388Z,6.60
2023-09-08T03:08:38.065Z,6.53
2023-09-08T03:11:09.177Z,6.33
2023-09-08T03:13:36.397Z,7.13
2023-09-08T03:16:04.903Z,8.67
2023-09-08T03:18:32.891Z,6.57
2023-09-08T03:21:00.719Z,7.47
2023-09-08T03:23:27.797Z,7.13
2023-09-08T03:25:54.880Z,10.97
2023-09-08T03:28:23.321Z,6.53
2023-09-08T03:30:50.464Z,10.23
2023-09-08T03:33:17.665Z,10.63
2023-09-08T03:35:44.928Z,7.40
2023-09-08T03:38:11.971Z,7.00
2023-09-08T03:40:39.026Z,7.50
2023-09-08T03:43:06.193Z,7.97
2023-09-08T03:45:34.879Z,6.57
2023-09-08T03:48:02.123Z,6.37
2023-09-08T03:50:31.079Z,7.50
2023-09-08T03:52:58.208Z,6.80
2023-09-08T03:55:25.533Z,6.73
2023-09-08T03:57:52.621Z,9.17
2023-09-08T04:00:20.532Z,7.83
2023-09-08T04:02:49.189Z,7.17
2023-09-08T04:05:17.087Z,8.77
2023-09-08T04:07:44.288Z,6.77
2023-09-08T04:10:11.531Z,9.37
2023-09-08T04:12:39.720Z,9.20
2023-09-08T04:15:07.760Z,7.93
2023-09-08T04:17:34.919Z,6.13
2023-09-08T04:20:04.055Z,6.10
2023-09-08T04:22:31.234Z,7.40
2023-09-08T04:24:58.407Z,7.00
2023-09-08T04:27:25.584Z,7.70
2023-09-08T04:29:52.709Z,7.67
2023-09-08T04:32:20.686Z,11.00
2023-09-08T04:34:47.757Z,9.07
2023-09-08T04:37:16.186Z,7.67
2023-09-08T04:39:43.399Z,10.63
2023-09-08T04:42:10.540Z,9.00
2023-09-08T04:44:37.611Z,9.43
2023-09-08T04:47:06.019Z,7.30
2023-09-08T04:49:33.193Z,6.77
2023-09-08T04:52:00.327Z,7.53
2023-09-08T04:54:29.207Z,7.33
2023-09-08T04:57:04.050Z,8.67
2023-09-08T04:59:40.616Z,10.47
2023-09-08T05:02:07.849Z,7.30
2023-09-08T05:04:34.990Z,9.50
2023-09-08T05:07:02.080Z,10.57
2023-09-08T05:09:30.463Z,9.67
2023-09-08T05:11:57.547Z,10.37
2023-09-08T05:14:24.674Z,8.90
2023-09-08T05:16:51.812Z,10.03
2023-09-08T05:19:18.908Z,11.03
2023-09-08T05:21:46.172Z,9.03
2023-09-08T05:24:13.429Z,11.07
2023-09-08T05:26:42.972Z,12.23
2023-09-08T05:29:10.183Z,8.90
2023-09-08T05:31:37.609Z,12.30
2023-09-08T05:34:04.773Z,9.03
2023-09-08T05:36:31.897Z,8.67
2023-09-08T05:38:59.342Z,9.77
2023-09-08T05:41:26.411Z,10.63
2023-09-08T05:43:54.860Z,9.23
2023-09-08T05:46:22.094Z,11.93
2023-09-08T05:48:49.173Z,10.60
2023-09-08T05:51:16.468Z,12.50
2023-09-08T05:53:43.589Z,17.37
2023-09-08T05:56:11.399Z,20.03
2023-09-08T05:58:38.643Z,14.53
2023-09-08T06:01:09.676Z,21.47
2023-09-08T06:03:37.083Z,16.73
2023-09-08T06:06:10.427Z,8.93
2023-09-08T06:08:37.907Z,12.83
2023-09-08T06:11:06.743Z,13.63
2023-09-08T06:13:35.773Z,12.70
2023-09-08T06:16:02.878Z,16.07
2023-09-08T06:18:31.428Z,13.57
2023-09-08T06:20:58.900Z,11.47
2023-09-08T06:23:26.101Z,11.03
2023-09-08T06:25:57.546Z,13.07
2023-09-08T06:28:26.415Z,11.27
2023-09-08T06:30:55.811Z,13.80
2023-09-08T06:33:23.207Z,14.20
2023-09-08T06:36:17.872Z,18.10
2023-09-08T06:38:45.084Z,12.33
2023-09-08T06:41:12.612Z,13.37
2023-09-08T06:43:39.900Z,12.63
2023-09-08T06:46:07.035Z,12.37
2023-09-08T06:48:37.433Z,16.17
2023-09-08T06:51:05.849Z,11.50
2023-09-08T06:53:37.627Z,13.17
2023-09-08T06:56:07.932Z,14.47
2023-09-08T06:58:35.276Z,15.20
2023-09-08T07:01:02.719Z,12.10
2023-09-08T07:03:30.557Z,13.93
2023-09-08T07:05:57.810Z,17.53
2023-09-08T07:08:26.354Z,15.27
2023-09-08T07:10:54.897Z,16.17
2023-09-08T07:13:22.186Z,15.27
2023-09-08T07:15:49.408Z,14.27
2023-09-08T07:18:16.507Z,19.73
2023-09-08T07:20:47.746Z,15.77
2023-09-08T07:23:14.821Z,18.43
2023-09-08T07:25:45.786Z,19.03
2023-09-08T07:28:14.380Z,15.93
2023-09-08T07:30:41.784Z,16.13
2023-09-08T07:33:09.032Z,18.90
2023-09-08T07:35:39.028Z,16.20
2023-09-08T07:38:06.331Z,14.80
2023-09-08T07:40:33.890Z,22.93
2023-09-08T07:43:01.022Z,24.50
2023-09-08T07:45:29.517Z,23.00
2023-09-08T07:47:56.732Z,23.70
2023-09-08T07:50:26.279Z,21.57
2023-09-08T07:52:54.997Z,26.67
2023-09-08T07:55:22.826Z,27.60
2023-09-08T07:57:51.502Z,32.67
2023-09-08T08:00:19.139Z,34.27
2023-09-08T08:02:51.024Z,33.27
2023-09-08T08:05:18.750Z,33.80
2023-09-08T08:07:45.887Z,31.93
2023-09-08T08:10:14.094Z,32.50
2023-09-08T08:12:42.162Z,31.27
2023-09-08T08:15:10.681Z,30.47
2023-09-08T08:17:38.321Z,32.17
2023-09-08T08:20:09.017Z,32.53
2023-09-08T08:22:36.724Z,28.60
2023-09-08T08:25:05.475Z,27.63
2023-09-08T08:27:32.887Z,32.20
2023-09-08T08:30:00.094Z,34.10
2023-09-08T08:32:27.324Z,27.67
2023-09-08T08:34:55.334Z,27.87
2023-09-08T08:37:23.960Z,22.27
2023-09-08T08:39:51.071Z,26.17
2023-09-08T08:42:18.490Z,24.45
2023-09-08T08:44:45.760Z,25.50
2023-09-08T08:47:17.658Z,21.35
2023-09-08T08:49:45.398Z,22.55
2023-09-08T08:52:16.362Z,25.65
2023-09-08T08:54:45.975Z,21.38
2023-09-08T08:57:13.764Z,20.30
2023-09-08T08:59:42.939Z,18.33
2023-09-08T09:02:12.693Z,18.73
2023-09-08T09:04:40.262Z,15.23
2023-09-08T09:07:08.519Z,13.85
2023-09-08T09:09:35.874Z,14.90
2023-09-08T09:12:04.851Z,14.60
2023-09-08T09:14:34.110Z,19.67
2023-09-08T09:17:01.523Z,19.23
2023-09-08T09:19:28.824Z,15.93
2023-09-08T09:21:56.704Z,17.10
2023-09-08T09:24:32.127Z,13.52
2023-09-08T09:26:59.737Z,16.20
2023-09-08T09:29:29.001Z,19.67
2023-09-08T09:31:57.548Z,15.93
2023-09-08T09:34:25.000Z,13.52
2023-09-08T09:36:52.907Z,11.43
2023-09-08T09:39:21.054Z,14.95
2023-09-08T09:41:48.976Z,13.90
2023-09-08T09:44:16.811Z,15.05
2023-09-08T09:46:46.712Z,13.05
2023-09-08T09:49:14.102Z,13.68
2023-09-08T09:51:43.343Z,11.57
2023-09-08T09:54:10.506Z,10.65
2023-09-08T09:56:43.156Z,13.15
2023-09-08T09:59:14.933Z,15.63
2023-09-08T10:01:43.380Z,17.67
2023-09-08T10:04:21.183Z,14.52
2023-09-08T10:06:48.545Z,14.60
2023-09-08T10:09:16.293Z,10.30
2023-09-08T10:11:46.257Z,10.80
2023-09-08T10:14:15.160Z,12.25
2023-09-08T10:16:45.354Z,11.02
2023-09-08T10:19:14.194Z,12.70
2023-09-08T10:21:42.980Z,14.05
2023-09-08T10:24:22.745Z,9.77
2023-09-08T10:26:57.192Z,8.90
2023-09-08T10:29:32.761Z,9.13
2023-09-08T10:32:03.159Z,9.50
2023-09-08T10:34:34.094Z,10.52
2023-09-08T10:37:04.515Z,9.48
2023-09-08T10:39:33.616Z,9.13
2023-09-08T10:42:23.165Z,11.38
2023-09-08T10:45:01.161Z,12.13
2023-09-08T10:47:34.554Z,11.20
2023-09-08T10:50:03.261Z,10.00
2023-09-08T10:52:30.431Z,12.98
2023-09-08T10:54:58.963Z,24.42
2023-09-08T10:57:26.823Z,14.55
2023-09-08T10:59:55.609Z,11.65
2023-09-08T11:02:40.289Z,8.63
2023-09-08T11:05:11.622Z,18.40
2023-09-08T11:07:39.425Z,9.63
2023-09-08T11:10:08.422Z,8.68
2023-09-08T11:12:36.273Z,10.70
2023-09-08T11:15:05.074Z,9.70
2023-09-08T11:17:32.538Z,10.05
2023-09-08T11:19:59.814Z,8.10
2023-09-08T11:22:28.540Z,8.98
2023-09-08T11:24:57.932Z,10.20
2023-09-08T11:27:25.405Z,10.50
2023-09-08T11:29:52.695Z,9.02
2023-09-08T11:32:19.870Z,9.82
2023-09-08T11:34:46.999Z,13.20
2023-09-08T11:37:15.586Z,11.35
2023-09-08T11:39:44.659Z,12.80
2023-09-08T11:42:14.528Z,11.30
2023-09-08T11:44:43.158Z,10.50
2023-09-08T11:47:11.389Z,9.95
2023-09-08T11:49:39.559Z,8.40
2023-09-08T11:52:07.280Z,16.98
2023-09-08T11:54:36.475Z,11.00
2023-09-08T11:57:06.545Z,11.38
2023-09-08T11:59:34.937Z,8.77
2023-09-08T12:02:02.324Z,9.00
2023-09-08T12:04:29.472Z,7.60
2023-09-08T12:06:56.795Z,7.03
2023-09-08T12:09:24.281Z,7.97
2023-09-08T12:11:51.529Z,8.80
2023-09-08T12:14:20.350Z,8.20
2023-09-08T12:16:47.923Z,8.38
2023-09-08T12:19:31.759Z,7.15
2023-09-08T12:22:01.808Z,12.23
2023-09-08T12:24:48.058Z,8.75
2023-09-08T12:27:15.813Z,8.25
2023-09-08T12:29:52.608Z,8.00
2023-09-08T12:32:19.841Z,7.30
2023-09-08T12:34:47.075Z,7.50
2023-09-08T12:37:14.194Z,8.63
2023-09-08T12:39:41.400Z,8.80
2023-09-08T12:42:08.476Z,7.22
2023-09-08T12:44:35.626Z,6.30
2023-09-08T12:47:04.576Z,6.45
2023-09-08T12:49:31.609Z,6.88
2023-09-08T12:51:58.580Z,7.72
2023-09-08T12:54:26.155Z,7.32
2023-09-08T12:56:53.067Z,7.50
2023-09-08T12:59:20.000Z,7.57
2023-09-08T13:01:47.136Z,6.97
2023-09-08T13:04:15.413Z,7.95
2023-09-08T13:06:42.725Z,7.25
2023-09-08T13:09:09.832Z,7.80
2023-09-08T13:11:36.831Z,7.28
2023-09-08T13:14:03.889Z,7.40
2023-09-08T13:16:31.055Z,8.57
2023-09-08T13:18:57.989Z,8.43
2023-09-08T13:21:27.979Z,10.10
2023-09-08T13:23:55.076Z,7.93
2023-09-08T13:26:22.022Z,6.97
2023-09-08T13:28:48.926Z,8.00
2023-09-08T13:31:16.074Z,7.65
2023-09-08T13:33:43.004Z,8.43
2023-09-08T13:36:09.962Z,8.25
2023-09-08T13:38:39.216Z,7.88
2023-09-08T13:41:06.356Z,8.05
2023-09-08T13:43:33.525Z,7.82
2023-09-08T13:46:00.621Z,9.98
2023-09-08T13:48:28.294Z,8.20
2023-09-08T13:50:56.173Z,7.93
2023-09-08T13:53:41.908Z,8.77
2023-09-08T13:56:15.160Z,7.35
2023-09-08T13:58:49.596Z,9.40
2023-09-08T14:01:20.084Z,9.45
2023-09-08T14:06:21.341Z,8.40
2023-09-08T14:11:35.032Z,12.30
2023-09-08T14:14:11.248Z,7.80
2023-09-08T14:16:38.203Z,8.88
2023-09-08T14:19:05.272Z,11.65
2023-09-08T14:21:32.388Z,10.45
2023-09-08T14:23:59.385Z,7.70
2023-09-08T14:26:27.728Z,7.55
2023-09-08T14:28:54.891Z,7.70
2023-09-08T14:31:21.941Z,11.10
2023-09-08T14:33:49.123Z,11.80
2023-09-08T14:36:20.501Z,9.23
2023-09-08T14:38:47.582Z,8.13
2023-09-08T14:41:14.710Z,8.82
2023-09-08T14:43:43.481Z,10.60
2023-09-08T14:46:10.382Z,8.95
2023-09-08T14:48:37.392Z,8.05
2023-09-08T14:51:04.577Z,7.55
2023-09-08T14:53:31.559Z,7.85
2023-09-08T14:55:58.522Z,7.70
2023-09-08T14:58:25.836Z,8.98
2023-09-08T15:00:54.174Z,9.15
2023-09-08T15:03:21.267Z,7.40
2023-09-08T15:05:48.490Z,8.50
2023-09-08T15:08:15.411Z,7.82
2023-09-08T15:10:42.366Z,10.88
2023-09-08T15:13:09.793Z,9.98
2023-09-08T15:15:36.726Z,7.25
2023-09-08T15:18:05.554Z,7.72
2023-09-08T15:20:32.694Z,8.52
2023-09-08T15:22:59.562Z,7.28
2023-09-08T15:25:26.448Z,9.95
2023-09-08T15:27:53.513Z,9.15
2023-09-08T15:30:20.530Z,7.95
2023-09-08T15:32:47.429Z,9.30
2023-09-08T15:35:16.080Z,7.63
2023-09-08T15:37:42.992Z,8.80
2023-09-08T15:40:11.054Z,8.88
2023-09-08T15:42:38.128Z,8.23
2023-09-08T15:45:05.836Z,8.63
2023-09-08T15:47:32.819Z,7.93
2023-09-08T15:50:00.004Z,10.30
2023-09-08T15:52:28.314Z,8.55
2023-09-08T15:54:55.227Z,8.80
2023-09-08T15:57:22.370Z,9.88
2023-09-08T15:59:49.263Z,9.32
2023-09-08T16:02:16.255Z,7.72
2023-09-08T16:04:43.470Z,7.63
2023-09-08T16:07:10.448Z,7.80
2023-09-08T16:09:39.003Z,7.95
2023-09-08T16:12:06.452Z,7.53
2023-09-08T16:14:34.103Z,7.25
2023-09-08T16:17:00.982Z,7.82
2023-09-08T16:19:28.086Z,8.23
2023-09-08T16:21:54.966Z,7.82
2023-09-08T16:24:21.873Z,8.45
2023-09-08T16:26:50.492Z,16.50
2023-09-08T16:29:17.650Z,7.63
2023-09-08T16:31:44.606Z,12.48
2023-09-08T16:34:11.658Z,9.10
2023-09-08T16:36:38.580Z,8.25
2023-09-08T16:39:06.105Z,8.43
2023-09-08T16:41:33.135Z,9.95
2023-09-08T16:44:01.346Z,13.02
2023-09-08T16:46:28.231Z,9.30
2023-09-08T16:48:55.316Z,7.95
2023-09-08T16:51:22.275Z,8.48
2023-09-08T16:53:49.180Z,8.25
2023-09-08T16:56:16.496Z,8.45
2023-09-08T16:58:43.594Z,9.13
2023-09-08T17:01:12.066Z,11.32
2023-09-08T17:03:39.482Z,8.93
2023-09-08T17:06:06.929Z,10.30
2023-09-08T17:08:33.991Z,8.40
2023-09-08T17:11:05.826Z,8.68
2023-09-08T17:13:33.988Z,8.30
2023-09-08T17:16:01.647Z,8.82
2023-09-08T17:18:30.344Z,8.60
2023-09-08T17:20:57.500Z,8.80
2023-09-08T17:23:24.756Z,8.70
2023-09-08T17:25:51.930Z,9.00
2023-09-08T17:28:19.056Z,9.90
2023-09-08T17:30:47.423Z,12.02
2023-09-08T17:33:14.560Z,10.57
2023-09-08T17:35:43.075Z,9.10
2023-09-08T17:38:10.202Z,9.88
2023-09-08T17:40:37.307Z,9.40
2023-09-08T17:43:04.776Z,9.10
2023-09-08T17:45:31.937Z,14.65
2023-09-08T17:47:59.193Z,9.25
2023-09-08T17:50:26.323Z,16.63
2023-09-08T17:52:54.736Z,10.15
2023-09-08T17:55:21.878Z,9.88
2023-09-08T17:57:49.674Z,10.48
2023-09-08T18:00:17.561Z,11.93
2023-09-08T18:02:45.115Z,10.38
2023-09-08T18:05:12.412Z,10.52
2023-09-08T18:07:39.489Z,10.38
2023-09-08T18:10:09.093Z,9.52
2023-09-08T18:12:36.154Z,10.35
2023-09-08T18:15:03.359Z,12.83
2023-09-08T18:17:30.404Z,15.68
2023-09-08T18:19:57.466Z,11.60
2023-09-08T18:22:24.938Z,14.73
2023-09-08T18:24:51.988Z,10.52
2023-09-08T18:27:20.760Z,9.27
2023-09-08T18:29:48.946Z,9.88
2023-09-08T18:32:16.203Z,14.30
2023-09-08T18:34:43.608Z,10.30
2023-09-08T18:37:10.766Z,11.25
2023-09-08T18:39:40.499Z,9.48
2023-09-08T18:42:07.647Z,9.77
2023-09-08T18:44:36.192Z,9.48
2023-09-08T18:47:03.592Z,9.90
2023-09-08T18:49:30.709Z,11.68
2023-09-08T18:51:57.724Z,10.75
2023-09-08T18:54:24.757Z,14.95
2023-09-08T18:56:51.836Z,12.38
2023-09-08T18:59:18.874Z,11.25
2023-09-08T19:01:47.250Z,11.25
2023-09-08T19:04:14.398Z,10.50
2023-09-08T19:06:41.502Z,11.35
2023-09-08T19:09:08.594Z,12.95
2023-09-08T19:11:35.833Z,10.27
2023-09-08T19:14:02.947Z,11.48
2023-09-08T19:16:30.015Z,10.27
2023-09-08T19:18:58.458Z,11.38
2023-09-08T19:21:25.814Z,10.35
2023-09-08T19:23:52.865Z,11.80
2023-09-08T19:26:19.936Z,11.13
2023-09-08T19:28:46.946Z,10.63
2023-09-08T19:31:14.079Z,10.65
2023-09-08T19:33:41.430Z,12.25
2023-09-08T19:36:10.415Z,11.05
2023-09-08T19:38:37.553Z,11.95
2023-09-08T19:41:05.148Z,11.52
2023-09-08T19:43:32.480Z,15.27
2023-09-08T19:46:04.490Z,11.20
2023-09-08T19:48:32.851Z,13.27
2023-09-08T19:50:59.956Z,12.50
2023-09-08T19:53:28.490Z,12.48
2023-09-08T19:55:55.603Z,14.70
2023-09-08T19:58:22.818Z,11.38
2023-09-08T20:00:50.958Z,12.02
2023-09-08T20:03:18.179Z,10.35
2023-09-08T20:05:45.663Z,10.68
2023-09-08T20:08:13.182Z,10.77
2023-09-08T20:10:41.835Z,15.65
2023-09-08T20:13:09.034Z,11.10
2023-09-08T20:15:36.501Z,11.85
2023-09-08T20:18:03.794Z,10.88
2023-09-08T20:20:30.914Z,11.23
2023-09-08T20:22:58.028Z,11.35
2023-09-08T20:25:25.112Z,11.57
2023-09-08T20:27:53.870Z,16.30
2023-09-08T20:30:21.068Z,13.32
2023-09-08T20:32:48.251Z,10.80
2023-09-08T20:35:15.632Z,12.38
2023-09-08T20:37:42.944Z,11.98
2023-09-08T20:40:10.997Z,11.27
2023-09-08T20:42:38.175Z,12.18
2023-09-08T20:45:07.773Z,16.95
2023-09-08T20:47:34.906Z,11.98
2023-09-08T20:50:02.066Z,11.18
2023-09-08T20:52:29.151Z,11.63
2023-09-08T20:54:56.209Z,12.93
2023-09-08T20:57:23.301Z,12.98
2023-09-08T20:59:50.390Z,11.35
2023-09-08T21:02:18.820Z,12.40
2023-09-08T21:04:45.954Z,11.98
2023-09-08T21:07:13.011Z,13.00
2023-09-08T21:09:40.132Z,11.88
2023-09-08T21:12:08.139Z,11.70
2023-09-08T21:14:35.353Z,14.60
2023-09-08T21:17:02.496Z,14.45
2023-09-08T21:19:31.249Z,15.23
2023-09-08T21:21:58.406Z,11.95
2023-09-08T21:24:25.569Z,11.40
2023-09-08T21:26:52.831Z,14.48
2023-09-08T21:29:19.897Z,14.45
2023-09-08T21:31:46.961Z,14.43
2023-09-08T21:34:14.005Z,13.63
2023-09-08T21:36:42.467Z,10.68
2023-09-08T21:39:09.574Z,13.98
2023-09-08T21:41:36.935Z,11.90
2023-09-08T21:44:04.371Z,11.60
2023-09-08T21:46:31.555Z,12.02
2023-09-08T21:48:58.672Z,11.25
2023-09-08T21:51:25.871Z,12.68
2023-09-08T21:53:54.326Z,9.95
2023-09-08T21:56:21.478Z,9.63
2023-09-08T21:58:48.531Z,11.80
2023-09-08T22:01:15.596Z,9.93
2023-09-08T22:03:43.097Z,10.10
2023-09-08T22:06:10.506Z,10.30
2023-09-08T22:08:37.757Z,10.15
2023-09-08T22:11:06.643Z,11.27
2023-09-08T22:13:37.204Z,13.02
2023-09-08T22:16:05.161Z,9.77
2023-09-08T22:18:32.390Z,10.60
2023-09-08T22:20:59.575Z,12.23
2023-09-08T22:23:26.969Z,11.15
2023-09-08T22:25:54.102Z,12.52
2023-09-08T22:28:22.538Z,12.02
2023-09-08T22:30:49.567Z,12.25
2023-09-08T22:33:16.772Z,13.02
2023-09-08T22:35:43.986Z,12.30
2023-09-08T22:38:11.019Z,13.23
2023-09-08T22:40:38.776Z,13.50
2023-09-08T22:43:05.857Z,12.20
2023-09-08T22:45:34.623Z,12.73
2023-09-08T22:48:01.819Z,12.77
2023-09-08T22:50:28.973Z,16.80
2023-09-08T22:52:56.061Z,11.70
2023-09-08T22:55:25.790Z,12.15
2023-09-08T22:57:53.828Z,15.43
2023-09-08T23:00:21.161Z,12.57
2023-09-08T23:02:49.749Z,13.70
2023-09-08T23:05:16.879Z,12.00
2023-09-08T23:07:44.206Z,11.55
2023-09-08T23:10:11.721Z,11.95
2023-09-08T23:12:38.808Z,12.88
2023-09-08T23:15:07.079Z,13.73
2023-09-08T23:17:34.895Z,14.27
2023-09-08T23:20:03.807Z,11.88
2023-09-08T23:22:30.912Z,12.45
2023-09-08T23:24:58.008Z,14.02
2023-09-08T23:27:25.221Z,12.98
2023-09-08T23:29:52.341Z,11.90
2023-09-08T23:32:19.693Z,14.30
2023-09-08T23:34:46.816Z,14.00
2023-09-08T23:37:15.868Z,11.10
2023-09-08T23:39:43.037Z,11.73
2023-09-08T23:42:10.172Z,11.03
2023-09-08T23:44:37.222Z,14.73
2023-09-08T23:47:05.860Z,11.35
2023-09-08T23:49:33.213Z,11.80
2023-09-08T23:52:00.894Z,10.68
2023-09-08T23:54:29.405Z,11.73
2023-09-08T23:56:57.473Z,11.35
2023-09-08T23:59:24.693Z,11.10
